• Join FlightAware (Why Join?)
  • Login
  • US Flag 
06:05AM EDT


 

Airport Tracker/Info


-or-


 

Live Flight TrackerFlight Track Log ✈ CTL13 ✈ 26-Jun-2013 ✈ KEYE - KMDW

Flight Track Log - Related Links

Times and Time Zones

All times are in EDT time to prevent confusion due to time zone crossing. See the CTL13 flight status page for this flight to view local times or setup timezone preferences in your user account.

Time Position Orientation Groundspeed Altitude Reporting Facility
EDT Latitude Longitude Course Direction KTS MPH feet Rate Location/Type
08:21PM 39.9000 -86.2833 360° North 164 189 2,200  Level Indianapolis TRACON
08:22PM 39.9333 -86.3000 339° North 161 185 2,900 480 Climbing Indianapolis TRACON
08:23PM 39.9667 -86.3333 323° Northwest 158 182 3,200 480 Climbing Indianapolis TRACON
08:25PM 40.0083 -86.3894 314° West 153 176 4,100 540 Climbing Chicago Center
08:26PM 40.0389 -86.4289 315° West 155 178 4,600 480 Climbing Indianapolis Center
08:27PM 40.0683 -86.4669 315° West 154 177 5,100 480 Climbing Indianapolis Center
08:28PM 40.0983 -86.5047 316° Northwest 152 175 5,600 420 Climbing Indianapolis Center
08:29PM 40.1286 -86.5417 317° Northwest 151 174 6,000 240 Climbing Indianapolis Center
08:30PM 40.1619 -86.5800 319° Northwest 154 177 6,200 60 Climbing Indianapolis Center
08:31PM 40.2011 -86.6281 317° Northwest 158 182 6,200  Level Indianapolis Center
08:31PM 40.2211 -86.6539 315° West 162 186 6,200  Level Chicago Center
08:32PM 40.2347 -86.6683 321° Northwest 162 186 6,200  Level Chicago Center
08:33PM 40.2725 -86.7167 316° Northwest 160 184 6,200 -60 Level Chicago Center
08:34PM 40.3042 -86.7544 318° Northwest 156 180 6,100  Descending Chicago Center
08:35PM 40.3344 -86.7961 314° West 158 182 6,200  Climbing Chicago Center
08:36PM 40.3653 -86.8361 315° West 157 181 6,200 -60 Level Chicago Center
08:37PM 40.3953 -86.8750 315° West 157 181 6,100 -60 Descending Chicago Center
08:38PM 40.4250 -86.9144 315° West 153 176 6,100  Level Chicago Center
08:39PM 40.4703 -86.9672 318° Northwest 153 176 6,100  Level Chicago Center
08:40PM 40.4939 -86.9944 319° Northwest 150 173 6,200  Climbing Chicago Center
08:41PM 40.5239 -87.0328 316° Northwest 151 174 6,100  Descending Chicago Center
08:42PM 40.5550 -87.0692 318° Northwest 149 171 6,200  Climbing Chicago Center
08:43PM 40.5958 -87.0889 340° North 157 181 6,200  Level Chicago Center
08:44PM 40.6417 -87.1144 337° Northwest 152 175 6,200  Level Chicago Center
08:45PM 40.6822 -87.1364 338° Northwest 156 180 6,200  Level Chicago Center
08:47PM 40.7225 -87.1578 338° Northwest 157 181 6,200  Level Chicago Center
08:48PM 40.7642 -87.1756 342° North 158 182 6,200  Level Chicago Center
08:49PM 40.8117 -87.1997 339° North 154 177 6,200  Level Chicago Center
08:50PM 40.8514 -87.2211 338° Northwest 155 178 6,200  Level Chicago Center
08:51PM 40.8919 -87.2425 338° Northwest 156 180 6,200  Level Chicago Center
08:52PM 40.9294 -87.2636 337° Northwest 149 171 6,200  Level Chicago Center
08:53PM 40.9675 -87.2836 338° Northwest 149 171 6,200 -120 Level Chicago Center
08:54PM 41.0139 -87.3094 337° Northwest 151 174 6,000 -300 Descending Chicago Center
08:55PM 41.0531 -87.3289 339° North 151 174 5,700 -480 Descending Chicago Center
08:56PM 41.0953 -87.3517 338° Northwest 159 183 5,100 -480 Descending Chicago Center
08:57PM 41.1397 -87.3764 337° Northwest 170 196 4,700 -540 Descending Chicago Center
08:58PM 41.1833 -87.4006 337° Northwest 171 197 4,000 -300 Descending Chicago Center
08:59PM 41.2342 -87.4297 337° Northwest 169 194 4,100  Climbing Chicago Center
09:00PM 41.2753 -87.4506 339° North 162 186 4,000 -60 Descending Chicago Center
09:01PM 41.3169 -87.4725 338° Northwest 163 188 4,000  Level Chicago Center
09:02PM 41.3578 -87.4953 337° Northwest 161 185 4,100  Climbing Chicago Center
09:03PM 41.3997 -87.5164 339° North 162 186 4,100 -60 Level Chicago Center
09:04PM 41.4519 -87.5428 339° North 165 190 4,000 -60 Descending Chicago Center
09:05PM 41.4947 -87.5647 339° North 166 191 4,000  Level Chicago Center
09:06PM 41.5217 -87.6147 306° West 170 196 4,000 -420 Level Chicago Center
09:07PM 41.5447 -87.6711 299° West 175 201 3,200 -480 Descending Chicago Center
09:08PM 41.5753 -87.7383 301° West 179 206 3,000 -60 Descending Chicago Center
09:09PM 41.6033 -87.7861 308° West 171 197 3,100 -240 Climbing Chicago Center
09:10PM 41.6322 -87.8350 308° West 169 194 2,600 -300 Descending Chicago Center
09:11PM 41.6633 -87.8847 310° West 173 199 2,500 -60 Descending Chicago Center
09:12PM 41.7056 -87.8514 31° Northeast 177 204 2,500 -240 Level Chicago Center
09:13PM 41.7456 -87.8083 39° Northeast 164 189 2,100 -720 Descending Chicago Center
09:14PM 41.7742 -87.7719 43° Northeast 153 176 1,100 -1,020 Descending Chicago Center
09:16PM 41.7833 -87.7500 13° North  Level FlightAware Approximate
09:23PM 41.7860 -87.7524 13° North  Level Estimated